Time;durP1;ratioP1;P1;durP2;ratioP2;P2;SDS_P1;SDS_P2;PMS_P1;PMS_P2;Temp;Humidity;BMP_temperature;BMP_pressure;BME280_temperature;BME280_humidity;BME280_pressure;Samples;Min_cycle;Max_cycle;Signal;HPM_P1;HPM_P2
2022/04/03 00:00:31;;;;;;;6.68;2.13;;;;;;;-0.30;73.53;102291.00;5008647;28;20077;-62
2022/04/03 00:03:00;;;;;;;4.68;1.92;;;;;;;-0.31;73.75;102286.69;5008330;28;20385;-58
2022/04/03 00:05:28;;;;;;;9.70;2.58;;;;;;;-0.37;74.01;102281.47;5006204;28;20054;-58
2022/04/03 00:07:58;;;;;;;3.90;1.88;;;;;;;-0.31;73.93;102284.09;5009669;28;20477;-58
2022/04/03 00:10:26;;;;;;;5.10;1.85;;;;;;;-0.43;73.86;102281.47;5008647;28;20057;-57
2022/04/03 00:12:54;;;;;;;4.82;1.80;;;;;;;-0.43;74.19;102281.47;5007513;28;20038;-58
2022/04/03 00:15:22;;;;;;;5.72;2.13;;;;;;;-0.32;73.76;102282.34;5008748;28;20496;-62
2022/04/03 00:17:50;;;;;;;4.70;2.10;;;;;;;-0.37;74.32;102284.94;5008575;28;20050;-58
2022/04/03 00:20:19;;;;;;;6.72;2.13;;;;;;;-0.43;75.01;102281.47;5006721;28;20058;-56
2022/04/03 00:22:49;;;;;;;4.03;1.98;;;;;;;-0.37;74.36;102278.88;5008137;28;20046;-61
2022/04/03 00:25:20;;;;;;;4.07;1.73;;;;;;;-0.42;74.63;102281.47;5009173;28;20053;-61
2022/04/03 00:27:48;;;;;;;5.97;1.77;;;;;;;-0.51;74.57;102284.00;5008572;28;20054;-61
2022/04/03 00:30:17;;;;;;;6.97;1.98;;;;;;;-0.54;74.68;102282.28;5008675;28;20436;-57
2022/04/03 00:32:45;;;;;;;5.20;1.90;;;;;;;-0.52;74.40;102278.00;5007300;28;20072;-58
2022/04/03 00:35:13;;;;;;;6.05;2.00;;;;;;;-0.59;75.04;102278.78;5006229;28;20046;-57
2022/04/03 00:37:41;;;;;;;5.63;1.80;;;;;;;-0.60;75.07;102281.38;5009067;28;20053;-57
2022/04/03 00:40:10;;;;;;;5.82;1.80;;;;;;;-0.62;75.55;102281.38;5009103;28;20759;-57
2022/04/03 00:42:40;;;;;;;5.47;2.05;;;;;;;-0.62;75.43;102278.78;5007818;28;20509;-57
2022/04/03 00:45:10;;;;;;;6.13;1.80;;;;;;;-0.60;76.50;102277.09;5006855;28;20049;-62
2022/04/03 00:47:40;;;;;;;3.80;1.77;;;;;;;-0.56;75.66;102281.41;5007881;28;20069;-62
2022/04/03 00:50:08;;;;;;;5.65;2.35;;;;;;;-0.64;76.10;102275.34;5006976;28;20072;-62
2022/04/03 00:52:37;;;;;;;4.50;1.67;;;;;;;-0.70;76.80;102280.47;5007143;28;20413;-62
2022/04/03 00:55:06;;;;;;;3.55;1.40;;;;;;;-0.69;77.10;102279.63;5007141;28;20053;-61
2022/04/03 00:57:35;;;;;;;4.15;1.70;;;;;;;-0.72;77.71;102274.47;5004710;28;20053;-62
2022/04/03 01:00:06;;;;;;;8.45;2.20;;;;;;;-0.70;78.59;102270.16;5007851;28;20088;-63
2022/04/03 01:02:34;;;;;;;5.75;1.98;;;;;;;-0.72;79.54;102271.88;5008415;28;20571;-61
2022/04/03 01:05:03;;;;;;;5.32;2.10;;;;;;;-0.84;79.96;102270.09;5007027;28;20085;-61
2022/04/03 01:07:31;;;;;;;5.68;1.80;;;;;;;-0.86;79.84;102269.19;5008403;28;20504;-61
2022/04/03 01:09:59;;;;;;;5.05;2.42;;;;;;;-0.89;80.29;102272.63;5008164;28;20041;-61
2022/04/03 01:12:28;;;;;;;6.72;2.10;;;;;;;-0.92;81.08;102269.19;5008292;28;20416;-61
2022/04/03 01:15:18;;;;;;;3.00;1.30;;;;;;;-1.00;81.03;102274.28;5008263;28;20052;-61
2022/04/03 01:17:46;;;;;;;6.20;1.88;;;;;;;-0.98;81.45;102270.00;5010134;28;20054;-61
2022/04/03 01:20:15;;;;;;;4.45;1.77;;;;;;;-1.03;81.85;102275.13;5010872;28;20173;-61
2022/04/03 01:22:43;;;;;;;3.88;1.70;;;;;;;-1.02;81.63;102273.44;5012678;28;20058;-61
2022/04/03 01:25:14;;;;;;;5.60;1.90;;;;;;;-1.11;81.39;102273.38;5011866;28;20066;-60
2022/04/03 01:27:43;;;;;;;3.33;1.73;;;;;;;-1.13;82.27;102275.94;5012088;28;20496;-62
2022/04/03 01:30:12;;;;;;;3.88;1.75;;;;;;;-1.11;82.83;102270.78;5011814;28;20361;-62
2022/04/03 01:32:40;;;;;;;5.45;1.98;;;;;;;-1.13;82.48;102275.06;5010371;28;20060;-62
2022/04/03 01:35:09;;;;;;;4.60;1.80;;;;;;;-1.11;82.50;102270.78;5010580;28;20042;-61
2022/04/03 01:37:37;;;;;;;5.55;1.90;;;;;;;-1.15;82.65;102272.47;5011458;28;20053;-56
2022/04/03 01:40:08;;;;;;;5.35;2.10;;;;;;;-1.25;83.43;102270.72;5012057;28;20054;-57
2022/04/03 01:42:38;;;;;;;4.13;1.70;;;;;;;-1.24;83.74;102265.56;5012166;28;20062;-57
2022/04/03 01:45:07;;;;;;;7.72;1.75;;;;;;;-1.28;83.99;102268.97;5011603;28;20076;-57
2022/04/03 01:47:36;;;;;;;4.50;1.80;;;;;;;-1.34;83.98;102270.63;5011549;28;20057;-57
2022/04/03 01:50:05;;;;;;;2.33;1.30;;;;;;;-1.31;83.58;102265.47;5010194;28;20041;-56
2022/04/03 01:52:34;;;;;;;4.63;1.52;;;;;;;-1.29;83.95;102272.38;5011706;28;20807;-55
2022/04/03 01:55:02;;;;;;;3.38;1.40;;;;;;;-1.33;84.94;102268.06;5011526;28;20046;-57
2022/04/03 01:57:30;;;;;;;6.00;1.90;;;;;;;-1.39;84.50;102268.00;5011602;28;20401;-56
2022/04/03 02:00:00;;;;;;;4.38;1.73;;;;;;;-1.47;84.61;102267.06;5011378;28;20508;-56
2022/04/03 02:02:28;;;;;;;4.97;1.70;;;;;;;-1.62;82.89;102266.13;5011151;28;20052;-58
2022/04/03 02:04:56;;;;;;;5.75;1.83;;;;;;;-1.67;82.68;102262.63;5009777;28;20046;-56
2022/04/03 02:07:25;;;;;;;4.03;1.85;;;;;;;-1.71;82.50;102266.03;5011554;28;20496;-56
2022/04/03 02:09:53;;;;;;;3.50;1.50;;;;;;;-1.76;83.24;102268.59;5011330;28;20160;-57
2022/04/03 02:12:21;;;;;;;4.20;1.60;;;;;;;-1.74;82.92;102266.03;5011244;28;20053;-56
2022/04/03 02:14:50;;;;;;;4.45;1.40;;;;;;;-1.74;83.12;102271.19;5010831;28;20050;-56
2022/04/03 02:17:19;;;;;;;3.60;1.83;;;;;;;-1.77;83.22;102277.16;5010514;28;20046;-56
2022/04/03 02:19:47;;;;;;;3.88;1.70;;;;;;;-1.79;83.22;102268.53;5010149;28;20077;-56
2022/04/03 02:22:20;;;;;;;4.60;1.60;;;;;;;-1.78;82.85;102265.13;5011582;28;20528;-56
2022/04/03 02:24:49;;;;;;;5.65;1.92;;;;;;;-1.79;83.28;102268.53;5011263;28;20049;-57
2022/04/03 02:27:17;;;;;;;4.32;1.88;;;;;;;-1.81;82.58;102259.06;5010024;28;20405;-56
2022/04/03 02:29:45;;;;;;;4.28;1.65;;;;;;;-1.81;83.22;102265.09;5011004;28;20393;-57
2022/04/03 02:32:13;;;;;;;3.15;1.40;;;;;;;-1.75;84.32;102265.13;5010719;28;20092;-57
2022/04/03 02:34:42;;;;;;;3.42;1.40;;;;;;;-1.79;84.90;102260.81;5008861;28;20513;-57
2022/04/03 02:37:13;;;;;;;4.57;1.65;;;;;;;-1.74;85.37;102266.03;5010747;28;20078;-56
2022/04/03 02:39:44;;;;;;;5.97;1.63;;;;;;;-1.79;85.49;102265.09;5011296;28;20124;-56
2022/04/03 02:42:12;;;;;;;4.35;1.63;;;;;;;-1.88;85.13;102260.75;5010855;28;20124;-57
2022/04/03 02:44:41;;;;;;;3.42;1.50;;;;;;;-1.85;84.61;102271.09;5011097;28;20060;-57
2022/04/03 02:47:09;;;;;;;3.97;1.65;;;;;;;-1.86;84.65;102266.75;5010743;28;20069;-57
2022/04/03 02:49:38;;;;;;;3.03;1.52;;;;;;;-1.84;84.79;102259.03;5009913;28;20046;-57
2022/04/03 02:52:07;;;;;;;4.60;1.52;;;;;;;-1.88;85.68;102266.75;5010021;28;20042;-61
2022/04/03 02:54:35;;;;;;;3.05;1.50;;;;;;;-1.95;85.82;102266.66;5011033;28;20536;-61
2022/04/03 02:57:05;;;;;;;3.72;1.60;;;;;;;-1.95;86.80;102264.97;5008995;28;20064;-61
2022/04/03 02:59:33;;;;;;;4.40;1.85;;;;;;;-1.97;86.88;102266.66;5009724;28;20058;-60
2022/04/03 03:02:01;;;;;;;4.95;2.20;;;;;;;-1.99;86.92;102260.63;5010660;28;20053;-61
2022/04/03 03:04:31;;;;;;;3.75;1.50;;;;;;;-1.90;88.73;102262.44;5009352;28;20045;-61
2022/04/03 03:06:59;;;;;;;4.65;1.98;;;;;;;-1.93;90.17;102260.69;5008692;28;20148;-61
2022/04/03 03:09:29;;;;;;;3.90;1.88;;;;;;;-1.92;89.72;102261.56;5010571;28;20049;-61
2022/04/03 03:11:58;;;;;;;6.78;2.40;;;;;;;-1.96;89.03;102255.50;5010347;28;20405;-62
2022/04/03 03:14:26;;;;;;;5.43;2.00;;;;;;;-1.98;89.28;102256.34;5009719;28;20050;-62
2022/04/03 03:16:55;;;;;;;3.35;1.88;;;;;;;-2.02;89.60;102252.84;5010037;28;20072;-61
2022/04/03 03:19:24;;;;;;;6.60;2.13;;;;;;;-2.06;90.26;102254.56;5008771;28;20448;-61
2022/04/03 03:21:52;;;;;;;4.85;1.90;;;;;;;-1.98;90.63;102241.72;5009391;28;20050;-60
2022/04/03 03:24:20;;;;;;;4.63;1.80;;;;;;;-1.93;91.16;102252.09;5010515;28;20042;-61
2022/04/03 03:26:49;;;;;;;5.10;1.90;;;;;;;-1.95;90.80;102253.78;5009939;28;20042;-62
2022/04/03 03:29:17;;;;;;;5.07;1.80;;;;;;;-1.95;91.28;102253.78;5009914;28;20056;-61
2022/04/03 03:31:45;;;;;;;4.47;1.83;;;;;;;-1.87;90.38;102258.19;5009799;28;20124;-61
2022/04/03 03:34:14;;;;;;;10.23;1.88;;;;;;;-1.90;91.46;102260.69;5008416;28;20054;-61
2022/04/03 03:36:42;;;;;;;4.72;2.05;;;;;;;-1.85;91.47;102255.59;5008417;28;20076;-60
2022/04/03 03:39:12;;;;;;;6.68;1.80;;;;;;;-1.84;90.71;102253.88;5009706;28;20112;-61
2022/04/03 03:41:40;;;;;;;6.00;1.77;;;;;;;-1.82;91.44;102254.78;5010030;28;20090;-61
2022/04/03 03:44:10;;;;;;;4.13;1.85;;;;;;;-1.87;92.04;102254.72;5009441;28;20511;-61
2022/04/03 03:46:39;;;;;;;4.32;1.67;;;;;;;-1.80;91.62;102263.38;5009580;28;20053;-61
2022/04/03 03:49:07;;;;;;;4.65;2.10;;;;;;;-1.80;91.36;102263.38;5007997;28;20054;-62
2022/04/03 03:51:36;;;;;;;4.22;1.83;;;;;;;-1.72;91.55;102262.59;5008941;28;20050;-61
2022/04/03 03:54:04;;;;;;;4.85;2.03;;;;;;;-1.78;91.72;102261.69;5009684;28;20059;-61
2022/04/03 03:56:33;;;;;;;4.47;2.00;;;;;;;-1.79;92.07;102260.81;5009247;28;20054;-61
2022/04/03 03:59:05;;;;;;;3.78;1.70;;;;;;;-1.80;92.76;102258.22;5007957;28;20061;-61
2022/04/03 04:01:35;;;;;;;;;;;;;;;-1.83;92.63;102260.78;5009734;28;20584;-57
2022/04/03 04:04:03;;;;;;;7.07;2.10;;;;;;;-1.81;92.87;102265.09;5007824;28;19925;-57
2022/04/03 04:06:31;;;;;;;3.95;1.83;;;;;;;-1.81;92.71;102259.94;5008548;28;20041;-57
2022/04/03 04:08:59;;;;;;;4.60;1.83;;;;;;;-1.81;93.09;102267.69;5008869;28;20128;-57
2022/04/03 04:11:27;;;;;;;3.42;1.65;;;;;;;-1.79;93.40;102265.09;5008830;28;20041;-57
2022/04/03 04:13:55;;;;;;;6.18;1.65;;;;;;;-1.78;93.37;102266.84;5007933;28;20569;-57
2022/04/03 04:16:23;;;;;;;4.55;1.77;;;;;;;-1.75;93.80;102264.28;5009170;28;20100;-57
2022/04/03 04:18:53;;;;;;;4.82;2.10;;;;;;;-1.76;94.12;102265.13;5007363;28;20045;-58
2022/04/03 04:21:21;;;;;;;3.88;1.92;;;;;;;-1.77;95.00;102263.38;5008166;28;20536;-57
2022/04/03 04:23:49;;;;;;;5.63;1.80;;;;;;;-1.74;94.68;102266.03;5008887;28;20486;-55
2022/04/03 04:26:19;;;;;;;5.38;1.92;;;;;;;-1.72;94.82;102264.31;5009014;28;20081;-57
2022/04/03 04:28:49;;;;;;;3.45;1.70;;;;;;;-1.71;94.91;102266.91;5008282;28;20379;-57
2022/04/03 04:31:17;;;;;;;3.67;1.52;;;;;;;-1.63;94.65;102264.38;5008809;28;20133;-57
2022/04/03 04:33:45;;;;;;;3.85;2.05;;;;;;;-1.70;96.17;102266.03;5008024;28;20387;-58
2022/04/03 04:36:15;;;;;;;5.68;2.00;;;;;;;-1.60;96.19;102273.88;5007756;28;20136;-57
2022/04/03 04:38:43;;;;;;;4.75;2.00;;;;;;;-1.63;96.14;102266.97;5008909;28;20080;-57
2022/04/03 04:41:12;;;;;;;8.00;2.25;;;;;;;-1.56;95.57;102273.91;5008508;28;20486;-58
2022/04/03 04:43:40;;;;;;;8.40;2.40;;;;;;;-1.56;95.87;102266.16;5008990;28;20081;-57
2022/04/03 04:46:09;;;;;;;4.60;1.98;;;;;;;-1.57;96.47;102274.78;5008293;28;20050;-57
2022/04/03 04:48:37;;;;;;;6.18;2.38;;;;;;;-1.54;96.86;102274.78;5008344;28;20404;-57
2022/04/03 04:51:05;;;;;;;6.70;2.03;;;;;;;-1.49;97.67;102279.97;5007235;28;20112;-57
2022/04/03 04:53:35;;;;;;;4.32;1.88;;;;;;;-1.45;97.92;102278.28;5008571;28;20623;-58
2022/04/03 04:56:04;;;;;;;4.75;1.90;;;;;;;-1.34;97.76;102275.78;5008447;28;20292;-56
2022/04/03 04:58:32;;;;;;;4.82;2.03;;;;;;;-1.33;98.01;102282.69;5006864;28;20141;-57
2022/04/03 05:01:00;;;;;;;4.35;2.13;;;;;;;-1.31;98.29;102278.41;5008402;28;20046;-57
2022/04/03 05:03:28;;;;;;;6.65;2.22;;;;;;;-1.33;98.39;102283.53;5007989;28;21135;-58
2022/04/03 05:05:57;;;;;;;5.43;2.50;;;;;;;-1.28;98.38;102283.56;5007002;28;20046;-57
2022/04/03 05:08:26;;;;;;;6.60;2.40;;;;;;;-1.25;98.83;102286.19;5008579;28;20046;-57
2022/04/03 05:10:56;;;;;;;6.10;2.30;;;;;;;-1.22;99.50;102287.06;5008439;28;20896;-58
2022/04/03 05:13:25;;;;;;;8.02;2.50;;;;;;;-1.17;99.16;102287.13;5008537;28;20409;-57
2022/04/03 05:15:54;;;;;;;4.70;2.15;;;;;;;-1.18;98.67;102293.13;5008133;28;20053;-58
2022/04/03 05:18:23;;;;;;;4.85;2.33;;;;;;;-1.12;98.70;102290.56;5007793;28;20100;-57
2022/04/03 05:20:51;;;;;;;5.85;2.17;;;;;;;-1.09;98.30;102293.19;5006720;28;20516;-58
2022/04/03 05:23:19;;;;;;;5.00;2.20;;;;;;;-1.06;98.56;102288.03;5008653;28;20061;-57
2022/04/03 05:25:47;;;;;;;4.53;1.80;;;;;;;-1.00;98.79;102288.94;5008609;28;20509;-57
2022/04/03 05:28:16;;;;;;;5.15;2.25;;;;;;;-0.93;99.45;102282.94;5007956;28;20034;-57
2022/04/03 05:30:45;;;;;;;5.25;2.15;;;;;;;-0.90;99.01;102289.00;5007778;28;20057;-58
2022/04/03 05:33:15;;;;;;;4.43;2.22;;;;;;;-0.86;99.28;102285.59;5006951;28;20069;-58
2022/04/03 05:35:43;;;;;;;6.43;2.15;;;;;;;-0.79;99.70;102285.59;5007004;28;20397;-58
2022/04/03 05:38:11;;;;;;;6.18;2.28;;;;;;;-0.74;99.58;102294.25;5008065;28;20460;-56
2022/04/03 05:40:40;;;;;;;6.38;2.40;;;;;;;-0.64;98.79;102284.81;5008722;28;20053;-57
2022/04/03 05:43:09;;;;;;;6.80;2.65;;;;;;;-0.58;99.18;102288.28;5007973;28;20386;-57
2022/04/03 05:45:38;;;;;;;6.50;2.53;;;;;;;-0.48;98.97;102293.50;5008465;28;20054;-57
2022/04/03 05:48:07;;;;;;;6.80;2.72;;;;;;;-0.46;99.13;102290.06;5007536;28;20050;-57
2022/04/03 05:50:37;;;;;;;10.00;3.00;;;;;;;-0.46;99.46;102295.25;5006723;28;20069;-57
2022/04/03 05:53:07;;;;;;;6.60;2.90;;;;;;;-0.42;99.93;102298.72;5008210;28;20508;-57
2022/04/03 05:55:35;;;;;;;7.00;3.10;;;;;;;-0.37;99.77;102295.28;5008388;28;20046;-57
2022/04/03 05:58:03;;;;;;;6.00;2.60;;;;;;;-0.27;99.47;102300.47;5007839;28;20054;-57
2022/04/03 06:00:31;;;;;;;8.60;3.25;;;;;;;-0.21;99.60;102303.06;5007655;28;20086;-57
2022/04/03 06:03:02;;;;;;;7.35;3.08;;;;;;;-0.19;99.23;102301.38;5008419;28;20088;-57
2022/04/03 06:05:32;;;;;;;6.57;2.58;;;;;;;-0.12;99.45;102297.94;5009777;28;20053;-57
2022/04/03 06:08:01;;;;;;;5.25;2.67;;;;;;;-0.08;99.62;102301.38;5010506;28;20041;-57
2022/04/03 06:10:30;;;;;;;7.57;3.05;;;;;;;-0.01;98.84;102303.16;5011321;28;20053;-57
2022/04/03 06:13:00;;;;;;;4.82;2.20;;;;;;;-0.01;98.93;102304.00;5011350;28;20508;-57
2022/04/03 06:15:31;;;;;;;7.45;2.90;;;;;;;0.02;98.96;102297.97;5010989;28;20060;-57
2022/04/03 06:18:02;;;;;;;8.00;3.00;;;;;;;0.07;98.87;102303.13;5010453;28;20053;-57
2022/04/03 06:20:31;;;;;;;5.95;2.80;;;;;;;0.06;98.83;102309.19;5009615;28;20053;-57
2022/04/03 06:22:59;;;;;;;8.30;2.70;;;;;;;0.08;98.16;102305.75;5011198;28;20093;-58
2022/04/03 06:25:27;;;;;;;6.85;2.67;;;;;;;0.15;98.38;102304.91;5010981;28;20046;-57
2022/04/03 06:27:55;;;;;;;6.40;2.58;;;;;;;0.21;98.53;102303.19;5010827;28;20042;-61
2022/04/03 06:30:24;;;;;;;5.78;2.92;;;;;;;0.26;98.05;102304.91;5010282;28;20061;-62
2022/04/03 06:32:52;;;;;;;7.68;3.33;;;;;;;0.32;97.66;102301.47;5008522;28;20631;-61
2022/04/03 06:35:22;;;;;;;6.78;3.13;;;;;;;0.35;97.29;102301.47;5009381;28;20042;-62
2022/04/03 06:37:50;;;;;;;8.98;3.05;;;;;;;0.39;96.61;102302.34;5011016;28;20535;-61
2022/04/03 06:40:18;;;;;;;6.82;3.58;;;;;;;0.47;96.75;102308.38;5010654;28;20112;-61
2022/04/03 06:42:47;;;;;;;6.55;3.30;;;;;;;0.49;96.42;102304.94;5009291;28;20104;-61
2022/04/03 06:45:15;;;;;;;8.52;3.25;;;;;;;0.59;96.25;102304.94;5010285;28;20057;-62
2022/04/03 06:47:44;;;;;;;7.75;3.17;;;;;;;0.66;96.28;102304.06;5010201;28;20541;-61
2022/04/03 06:50:12;;;;;;;5.45;2.78;;;;;;;0.74;96.08;102310.09;5009049;28;20444;-62
2022/04/03 06:52:42;;;;;;;5.57;2.75;;;;;;;0.78;94.92;102300.63;5010358;28;20052;-62
2022/04/03 06:55:10;;;;;;;6.50;2.90;;;;;;;0.86;94.59;102304.06;5010642;28;21131;-61
2022/04/03 06:57:38;;;;;;;6.53;2.72;;;;;;;0.93;94.56;102307.50;5010572;28;20858;-62
2022/04/03 07:00:08;;;;;;;9.00;2.60;;;;;;;1.00;94.94;102304.03;5008641;28;20153;-61
2022/04/03 07:02:37;;;;;;;4.43;2.55;;;;;;;1.04;93.39;102308.34;5009968;28;20110;-62
2022/04/03 07:05:05;;;;;;;7.38;2.83;;;;;;;1.15;92.72;102309.16;5008530;28;20970;-57
2022/04/03 07:07:33;;;;;;;7.90;2.85;;;;;;;1.24;93.03;102312.59;5010177;28;20104;-57
2022/04/03 07:10:03;;;;;;;6.88;2.90;;;;;;;1.33;93.05;102315.19;5009736;28;20074;-62
2022/04/03 07:12:31;;;;;;;7.13;3.08;;;;;;;1.44;93.01;102307.38;5009541;28;20061;-61
2022/04/03 07:14:59;;;;;;;6.57;2.75;;;;;;;1.58;92.76;102309.91;5009165;28;20069;-62
2022/04/03 07:17:27;;;;;;;8.40;3.03;;;;;;;1.71;93.13;102313.31;5008966;28;20049;-62
2022/04/03 07:20:02;;;;;;;5.45;2.58;;;;;;;1.86;92.37;102319.28;5007924;28;20727;-62
2022/04/03 07:22:29;;;;;;;5.53;2.80;;;;;;;1.97;91.84;102321.81;5008374;28;20089;-62
2022/04/03 07:24:58;;;;;;;5.70;2.60;;;;;;;2.15;91.47;102322.56;5010234;28;20046;-61
2022/04/03 07:27:27;;;;;;;7.18;2.45;;;;;;;2.30;90.34;102316.41;5009276;28;20164;-61
2022/04/03 07:29:55;;;;;;;7.60;2.65;;;;;;;2.45;89.82;102308.50;5009483;28;20679;-62
2022/04/03 07:32:24;;;;;;;7.00;2.58;;;;;;;2.65;88.84;102312.69;5008872;28;20107;-58
2022/04/03 07:34:52;;;;;;;5.30;2.50;;;;;;;2.84;88.47;102316.00;5008512;28;20444;-58
2022/04/03 07:37:20;;;;;;;6.68;2.60;;;;;;;3.03;88.09;102317.53;5009309;28;20511;-57
2022/04/03 07:39:48;;;;;;;6.10;2.72;;;;;;;3.26;86.24;102315.56;5009837;28;20104;-58
2022/04/03 07:42:16;;;;;;;7.30;2.85;;;;;;;3.44;85.79;102319.72;5009453;28;20046;-62
2022/04/03 07:44:45;;;;;;;7.63;2.50;;;;;;;3.54;82.35;102322.19;5009709;28;20054;-57
2022/04/03 07:47:14;;;;;;;6.10;2.55;;;;;;;3.75;81.73;102319.31;5009285;28;20129;-58
2022/04/03 07:49:43;;;;;;;5.68;2.20;;;;;;;3.96;79.69;102318.19;5008433;28;20070;-57
2022/04/03 07:52:11;;;;;;;6.38;2.65;;;;;;;4.17;79.00;102317.00;5008897;28;20092;-57
2022/04/03 07:54:39;;;;;;;8.55;2.30;;;;;;;4.37;77.86;102314.94;5009626;28;20112;-58
2022/04/03 07:57:07;;;;;;;4.57;2.20;;;;;;;4.59;77.33;102318.97;5009068;28;20054;-58
2022/04/03 07:59:35;;;;;;;5.45;2.15;;;;;;;4.80;74.58;102320.34;5009471;28;20069;-58
2022/04/03 08:02:05;;;;;;;5.15;2.25;;;;;;;5.02;74.50;102315.63;5008880;28;20554;-58
2022/04/03 08:04:33;;;;;;;5.68;2.55;;;;;;;5.25;73.30;102318.66;5007607;28;20049;-58
2022/04/03 08:07:01;;;;;;;7.25;2.47;;;;;;;5.45;73.69;102321.75;5008272;28;20072;-57
2022/04/03 08:09:30;;;;;;;6.60;2.08;;;;;;;5.56;71.94;102322.38;5008898;28;20042;-58
2022/04/03 08:11:58;;;;;;;4.00;2.10;;;;;;;5.70;71.12;102322.97;5008557;28;20057;-58
2022/04/03 08:14:27;;;;;;;4.95;2.00;;;;;;;5.91;69.89;102323.41;5009110;28;20058;-58
2022/04/03 08:16:56;;;;;;;6.32;2.55;;;;;;;6.13;70.19;102313.34;5008493;28;20045;-58
2022/04/03 08:19:25;;;;;;;5.70;3.10;;;;;;;6.19;68.00;102322.81;5007422;28;20049;-58
2022/04/03 08:21:53;;;;;;;5.05;2.42;;;;;;;6.37;69.49;102317.16;5007531;28;20108;-58
2022/04/03 08:24:21;;;;;;;5.30;2.25;;;;;;;6.59;68.72;102314.88;5008653;28;20050;-58
2022/04/03 08:26:49;;;;;;;4.80;2.20;;;;;;;6.81;67.52;102319.56;5008411;28;20046;-58
2022/04/03 08:29:18;;;;;;;4.28;2.33;;;;;;;7.02;66.40;102312.91;5008693;28;20058;-58
2022/04/03 08:31:46;;;;;;;5.53;1.95;;;;;;;7.42;63.78;102314.41;5008634;28;20079;-57
2022/04/03 08:34:14;;;;;;;4.43;2.30;;;;;;;7.44;65.44;102314.38;5007252;28;20073;-58
2022/04/03 08:37:04;;;;;;;6.05;1.98;;;;;;;7.84;63.25;102323.69;5007817;28;20050;-58
2022/04/03 08:39:32;;;;;;;3.45;1.55;;;;;;;8.05;61.58;102318.69;5008852;28;20092;-57
2022/04/03 08:42:00;;;;;;;3.55;1.80;;;;;;;8.27;60.26;102316.25;5008547;28;20057;-58
2022/04/03 08:44:29;;;;;;;4.35;1.85;;;;;;;8.56;60.35;102312.72;5008419;28;20053;-57
2022/04/03 08:47:00;;;;;;;5.75;2.20;;;;;;;8.56;60.20;102319.72;5008788;28;20529;-57
2022/04/03 08:49:31;;;;;;;5.32;1.83;;;;;;;8.35;59.42;102308.16;5006967;28;20046;-57
2022/04/03 08:52:01;;;;;;;4.63;1.80;;;;;;;8.40;58.09;102308.88;5007921;28;20057;-57
2022/04/03 08:54:32;;;;;;;5.88;1.80;;;;;;;8.52;57.97;102308.50;5008694;28;20073;-57
2022/04/03 08:57:01;;;;;;;4.50;1.95;;;;;;;8.21;58.54;102317.31;5008127;28;20090;-58
2022/04/03 08:59:29;;;;;;;5.10;1.90;;;;;;;7.98;59.20;102323.28;5008084;28;20054;-57
2022/04/03 09:01:57;;;;;;;5.25;1.90;;;;;;;7.74;60.65;102317.88;5006960;28;20072;-62
2022/04/03 09:04:27;;;;;;;5.60;2.03;;;;;;;7.87;60.81;102318.34;5006823;28;20116;-63
2022/04/03 09:06:56;;;;;;;3.85;1.50;;;;;;;8.05;57.22;102318.69;5007538;28;20048;-63
2022/04/03 09:09:26;;;;;;;5.07;1.70;;;;;;;7.86;58.27;102315.78;5008317;28;20074;-63
2022/04/03 09:12:10;;;;;;;3.80;1.67;;;;;;;7.98;57.30;102314.56;5006262;28;20387;-63
2022/04/03 09:14:46;;;;;;;2.97;1.15;;;;;;;7.91;55.96;102314.75;5008195;28;20053;-63
2022/04/03 09:17:14;;;;;;;4.40;1.27;;;;;;;8.12;57.13;102302.72;5007670;28;20054;-62
2022/04/03 09:19:42;;;;;;;3.17;1.40;;;;;;;8.53;56.24;102307.56;5007158;28;20450;-62
2022/04/03 09:22:10;;;;;;;3.67;1.40;;;;;;;8.84;55.83;102298.66;5008373;28;20876;-62
2022/04/03 09:24:48;;;;;;;4.88;1.60;;;;;;;8.92;53.25;102296.63;5008585;28;20148;-57
2022/04/03 09:27:17;;;;;;;4.85;1.30;;;;;;;9.29;53.16;102290.06;5007906;28;20164;-58
2022/04/03 09:29:46;;;;;;;6.22;1.23;;;;;;;9.33;52.50;102289.97;5008053;28;20509;-57
2022/04/03 09:32:15;;;;;;;3.40;0.95;;;;;;;9.41;51.05;102287.91;5007704;28;20053;-62
2022/04/03 09:34:45;;;;;;;2.33;1.00;;;;;;;9.35;51.61;102275.00;5006884;28;20129;-63
2022/04/03 09:37:13;;;;;;;1.67;1.23;;;;;;;9.74;50.10;102284.91;5008266;28;20405;-57
2022/04/03 09:39:42;;;;;;;3.20;1.30;;;;;;;9.96;51.73;102267.38;5012323;28;20740;-62
2022/04/03 09:42:11;;;;;;;2.83;1.13;;;;;;;10.25;50.23;102278.50;5011542;28;20050;-63
2022/04/03 09:44:42;;;;;;;6.10;1.20;;;;;;;9.82;49.26;102275.81;5011999;28;20057;-63
2022/04/03 09:47:30;;;;;;;3.38;1.40;;;;;;;9.70;50.21;102275.44;5011670;28;20057;-63
2022/04/03 09:50:00;;;;;;;4.13;1.38;;;;;;;9.46;51.09;102278.06;5009734;28;20046;-63
2022/04/03 09:52:43;;;;;;;4.65;1.75;;;;;;;8.95;51.93;102275.53;5011360;28;20111;-63
2022/04/03 09:55:16;;;;;;;4.72;1.58;;;;;;;8.94;52.62;102263.34;5010944;28;20440;-63
2022/04/03 09:57:46;;;;;;;4.15;1.40;;;;;;;8.66;51.45;102273.94;5011051;28;20111;-63
2022/04/03 10:00:39;;;;;;;3.30;0.90;;;;;;;8.17;49.60;102271.13;5011826;28;20046;-64
2022/04/03 10:03:11;;;;;;;3.55;0.85;;;;;;;8.20;49.97;102273.66;5010679;28;20049;-64
2022/04/03 10:05:39;;;;;;;5.03;1.20;;;;;;;8.28;50.68;102276.88;5010324;28;20105;-63
2022/04/03 10:08:08;;;;;;;1.08;0.80;;;;;;;8.18;50.25;102275.47;5011621;28;20497;-63
2022/04/03 10:10:37;;;;;;;4.38;1.20;;;;;;;8.53;50.41;102260.38;5011556;28;20050;-63
2022/04/03 10:13:06;;;;;;;5.47;1.10;;;;;;;8.56;48.65;102257.66;5009757;28;20050;-64
2022/04/03 10:15:36;;;;;;;3.33;0.90;;;;;;;8.67;49.36;102262.53;5011572;28;20053;-64
2022/04/03 10:18:05;;;;;;;3.50;0.80;;;;;;;8.34;48.85;102260.09;5010754;28;20496;-64
2022/04/03 10:20:36;;;;;;;1.80;0.80;;;;;;;8.70;49.40;102253.69;5009498;28;20053;-64
2022/04/03 10:23:08;;;;;;;3.17;1.00;;;;;;;8.99;50.14;102247.41;5010869;28;20503;-58
2022/04/03 10:25:39;;;;;;;4.13;1.02;;;;;;;9.13;48.16;102249.53;5011426;28;20540;-58
2022/04/03 10:28:10;;;;;;;2.28;0.73;;;;;;;9.08;47.12;102246.22;5010885;28;20057;-58
2022/04/03 10:30:43;;;;;;;3.00;0.80;;;;;;;8.86;47.90;102247.00;5010720;28;20493;-58
2022/04/03 10:33:19;;;;;;;2.47;0.80;;;;;;;9.03;48.61;102245.53;5009480;28;20073;-57
2022/04/03 10:35:49;;;;;;;5.15;0.98;;;;;;;9.03;48.32;102246.41;5009533;28;20042;-58
2022/04/03 10:38:20;;;;;;;2.47;0.82;;;;;;;8.77;49.29;102252.56;5010649;28;20053;-58
2022/04/03 10:40:59;;;;;;;3.15;1.15;;;;;;;8.60;51.65;102256.66;5010672;28;20054;-57
2022/04/03 10:43:29;;;;;;;2.95;1.13;;;;;;;8.08;52.73;102255.72;5010678;28;20046;-58
2022/04/03 10:45:59;;;;;;;5.43;1.38;;;;;;;7.90;52.72;102249.31;5010376;28;20054;-58
2022/04/03 10:48:31;;;;;;;5.80;1.70;;;;;;;7.87;53.35;102247.63;5008827;28;20046;-57
2022/04/03 10:51:26;;;;;;;3.10;1.40;;;;;;;7.99;54.64;102256.00;5009088;28;20050;-57
2022/04/03 10:54:01;;;;;;;4.45;1.35;;;;;;;7.98;54.43;102251.69;5010428;28;20050;-57
2022/04/03 10:56:30;;;;;;;3.33;1.15;;;;;;;8.16;53.93;102251.06;5010245;28;20125;-57
2022/04/03 10:58:59;;;;;;;3.78;1.50;;;;;;;8.13;54.88;102246.78;5010205;28;20053;-57
2022/04/03 11:01:31;;;;;;;4.43;1.33;;;;;;;8.32;54.88;102245.31;5010559;28;20053;-57
2022/04/03 11:04:01;;;;;;;3.92;1.60;;;;;;;8.51;54.48;102235.97;5008693;28;20525;-57
2022/04/03 11:06:32;;;;;;;3.72;1.50;;;;;;;8.39;53.11;102236.38;5009554;28;20073;-56
2022/04/03 11:09:05;;;;;;;3.92;1.58;;;;;;;8.92;54.76;102235.44;5009986;28;20108;-57
2022/04/03 11:11:44;;;;;;;5.28;1.42;;;;;;;8.78;53.44;102223.66;5010230;28;20125;-58
2022/04/03 11:14:33;;;;;;;3.15;1.00;;;;;;;8.67;51.08;102222.31;5010026;28;20504;-58
2022/04/03 11:17:03;;;;;;;2.92;1.30;;;;;;;8.81;52.07;102220.06;5010146;28;20056;-58
2022/04/03 11:19:36;;;;;;;4.60;1.30;;;;;;;8.48;51.43;102220.34;5008866;28;20061;-58
2022/04/03 11:22:06;;;;;;;3.67;1.25;;;;;;;8.75;52.85;102222.91;5009567;28;20060;-58
2022/04/03 11:24:38;;;;;;;2.78;1.30;;;;;;;8.76;52.62;102220.22;5010309;28;20096;-58
2022/04/03 11:27:08;;;;;;;3.10;1.25;;;;;;;8.49;53.53;102218.56;5009903;28;20042;-59
2022/04/03 11:29:37;;;;;;;2.67;1.33;;;;;;;8.53;54.34;102218.41;5010188;28;20137;-59
2022/04/03 11:32:09;;;;;;;3.67;1.60;;;;;;;8.45;55.07;102215.19;5009649;28;20547;-59
2022/04/03 11:34:37;;;;;;;3.58;1.27;;;;;;;8.42;54.89;102210.03;5008279;28;20050;-59
2022/04/03 11:37:10;;;;;;;5.15;1.60;;;;;;;7.98;55.72;102221.09;5009069;28;20062;-58
2022/04/03 11:39:40;;;;;;;;;;;;;;;8.09;55.32;102218.97;5009680;28;20509;-58